sensor_id;sensor_type;location;lat;lon;timestamp;temperature;humidity
41953;DHT22;63613;28.200;112.870;2023-05-07T00:01:19;24.30;66.70
41953;DHT22;63613;28.200;112.870;2023-05-07T00:03:45;24.30;66.70
41953;DHT22;63613;28.200;112.870;2023-05-07T00:06:12;24.20;66.70
41953;DHT22;63613;28.200;112.870;2023-05-07T00:08:39;24.20;66.70
41953;DHT22;63613;28.200;112.870;2023-05-07T00:13:53;24.20;66.70
41953;DHT22;63613;28.200;112.870;2023-05-07T00:16:20;24.20;66.70
41953;DHT22;63613;28.200;112.870;2023-05-07T00:18:47;24.20;66.60
41953;DHT22;63613;28.200;112.870;2023-05-07T00:21:14;24.20;66.60
41953;DHT22;63613;28.200;112.870;2023-05-07T00:23:41;24.20;66.50
41953;DHT22;63613;28.200;112.870;2023-05-07T00:26:08;24.20;66.40
41953;DHT22;63613;28.200;112.870;2023-05-07T00:28:34;24.20;66.40
41953;DHT22;63613;28.200;112.870;2023-05-07T00:31:01;24.20;66.40
41953;DHT22;63613;28.200;112.870;2023-05-07T00:33:28;24.20;66.10
41953;DHT22;63613;28.200;112.870;2023-05-07T00:35:55;24.20;66.20
41953;DHT22;63613;28.200;112.870;2023-05-07T00:38:21;24.30;66.10
41953;DHT22;63613;28.200;112.870;2023-05-07T00:40:48;24.30;66.00
41953;DHT22;63613;28.200;112.870;2023-05-07T00:43:16;24.30;66.20
41953;DHT22;63613;28.200;112.870;2023-05-07T00:45:43;24.30;66.30
41953;DHT22;63613;28.200;112.870;2023-05-07T00:48:10;24.20;66.30
41953;DHT22;63613;28.200;112.870;2023-05-07T00:50:37;24.20;66.40
41953;DHT22;63613;28.200;112.870;2023-05-07T00:53:07;24.20;66.30
41953;DHT22;63613;28.200;112.870;2023-05-07T00:55:34;24.20;66.40
41953;DHT22;63613;28.200;112.870;2023-05-07T00:58:01;24.20;66.50
41953;DHT22;63613;28.200;112.870;2023-05-07T01:00:29;24.20;66.40
41953;DHT22;63613;28.200;112.870;2023-05-07T01:02:55;24.20;66.50
41953;DHT22;63613;28.200;112.870;2023-05-07T01:05:24;24.20;66.50
41953;DHT22;63613;28.200;112.870;2023-05-07T01:07:53;24.20;66.50
41953;DHT22;63613;28.200;112.870;2023-05-07T01:10:21;24.20;66.30
41953;DHT22;63613;28.200;112.870;2023-05-07T01:12:50;24.20;66.20
41953;DHT22;63613;28.200;112.870;2023-05-07T01:15:20;24.20;66.30
41953;DHT22;63613;28.200;112.870;2023-05-07T01:18:07;24.20;66.40
41953;DHT22;63613;28.200;112.870;2023-05-07T01:20:34;24.20;66.40
41953;DHT22;63613;28.200;112.870;2023-05-07T01:23:01;24.20;66.30
41953;DHT22;63613;28.200;112.870;2023-05-07T01:25:35;24.20;66.10
41953;DHT22;63613;28.200;112.870;2023-05-07T01:28:02;24.20;66.40
41953;DHT22;63613;28.200;112.870;2023-05-07T01:30:30;24.20;66.50
41953;DHT22;63613;28.200;112.870;2023-05-07T01:33:18;24.10;66.60
41953;DHT22;63613;28.200;112.870;2023-05-07T01:35:47;24.20;66.60
41953;DHT22;63613;28.200;112.870;2023-05-07T01:38:15;24.20;66.60
41953;DHT22;63613;28.200;112.870;2023-05-07T01:41:03;24.20;66.60
41953;DHT22;63613;28.200;112.870;2023-05-07T01:43:31;24.20;66.60
41953;DHT22;63613;28.200;112.870;2023-05-07T01:45:59;24.20;66.70
41953;DHT22;63613;28.200;112.870;2023-05-07T01:48:29;24.20;66.70
41953;DHT22;63613;28.200;112.870;2023-05-07T01:50:56;24.20;66.70
41953;DHT22;63613;28.200;112.870;2023-05-07T01:53:26;24.20;66.70
41953;DHT22;63613;28.200;112.870;2023-05-07T01:55:53;24.10;66.70
41953;DHT22;63613;28.200;112.870;2023-05-07T01:58:20;24.20;66.80
41953;DHT22;63613;28.200;112.870;2023-05-07T02:00:48;24.20;66.70
41953;DHT22;63613;28.200;112.870;2023-05-07T02:03:15;24.20;66.80
41953;DHT22;63613;28.200;112.870;2023-05-07T02:05:44;24.20;66.70
41953;DHT22;63613;28.200;112.870;2023-05-07T02:08:11;24.20;66.70
41953;DHT22;63613;28.200;112.870;2023-05-07T02:10:37;24.20;66.70
41953;DHT22;63613;28.200;112.870;2023-05-07T02:13:05;24.20;66.80
41953;DHT22;63613;28.200;112.870;2023-05-07T02:15:34;24.20;66.80
41953;DHT22;63613;28.200;112.870;2023-05-07T02:18:02;24.20;66.80
41953;DHT22;63613;28.200;112.870;2023-05-07T02:20:31;24.20;66.90
41953;DHT22;63613;28.200;112.870;2023-05-07T02:22:58;24.10;66.80
41953;DHT22;63613;28.200;112.870;2023-05-07T02:25:25;24.20;66.90
41953;DHT22;63613;28.200;112.870;2023-05-07T02:27:52;24.10;66.90
41953;DHT22;63613;28.200;112.870;2023-05-07T02:30:18;24.10;67.00
41953;DHT22;63613;28.200;112.870;2023-05-07T02:32:49;24.10;67.10
41953;DHT22;63613;28.200;112.870;2023-05-07T02:35:16;24.20;67.10
41953;DHT22;63613;28.200;112.870;2023-05-07T02:37:43;24.20;67.10
41953;DHT22;63613;28.200;112.870;2023-05-07T02:40:11;24.20;66.90
41953;DHT22;63613;28.200;112.870;2023-05-07T02:42:38;24.20;67.00
41953;DHT22;63613;28.200;112.870;2023-05-07T02:45:05;24.20;67.00
41953;DHT22;63613;28.200;112.870;2023-05-07T02:47:32;24.20;67.00
41953;DHT22;63613;28.200;112.870;2023-05-07T02:49:59;24.20;67.00
41953;DHT22;63613;28.200;112.870;2023-05-07T02:52:25;24.20;66.90
41953;DHT22;63613;28.200;112.870;2023-05-07T02:55:13;24.20;67.00
41953;DHT22;63613;28.200;112.870;2023-05-07T02:57:40;24.20;67.10
41953;DHT22;63613;28.200;112.870;2023-05-07T03:00:13;24.20;67.20
41953;DHT22;63613;28.200;112.870;2023-05-07T03:02:41;24.20;67.20
41953;DHT22;63613;28.200;112.870;2023-05-07T03:05:09;24.20;67.20
41953;DHT22;63613;28.200;112.870;2023-05-07T03:07:57;24.20;67.10
41953;DHT22;63613;28.200;112.870;2023-05-07T03:10:24;24.30;67.00
41953;DHT22;63613;28.200;112.870;2023-05-07T03:12:51;24.30;66.90
41953;DHT22;63613;28.200;112.870;2023-05-07T03:15:18;24.30;67.10
41953;DHT22;63613;28.200;112.870;2023-05-07T03:17:44;24.20;67.40
41953;DHT22;63613;28.200;112.870;2023-05-07T03:20:11;24.20;67.50
41953;DHT22;63613;28.200;112.870;2023-05-07T03:22:39;24.20;67.70
41953;DHT22;63613;28.200;112.870;2023-05-07T03:25:06;24.20;67.70
41953;DHT22;63613;28.200;112.870;2023-05-07T03:27:33;24.20;67.80
41953;DHT22;63613;28.200;112.870;2023-05-07T03:30:00;24.20;67.80
41953;DHT22;63613;28.200;112.870;2023-05-07T03:32:27;24.20;67.80
41953;DHT22;63613;28.200;112.870;2023-05-07T03:34:56;24.20;67.80
41953;DHT22;63613;28.200;112.870;2023-05-07T03:37:25;24.20;67.80
41953;DHT22;63613;28.200;112.870;2023-05-07T03:39:51;24.20;67.90
41953;DHT22;63613;28.200;112.870;2023-05-07T03:42:18;24.20;67.90
41953;DHT22;63613;28.200;112.870;2023-05-07T03:44:45;24.20;67.80
41953;DHT22;63613;28.200;112.870;2023-05-07T03:47:32;24.20;67.80
41953;DHT22;63613;28.200;112.870;2023-05-07T03:49:59;24.20;67.90
41953;DHT22;63613;28.200;112.870;2023-05-07T03:52:26;24.10;67.90
41953;DHT22;63613;28.200;112.870;2023-05-07T03:55:13;24.10;67.90
41953;DHT22;63613;28.200;112.870;2023-05-07T03:57:39;24.20;67.80
41953;DHT22;63613;28.200;112.870;2023-05-07T04:00:10;24.20;67.80
41953;DHT22;63613;28.200;112.870;2023-05-07T04:02:37;24.20;67.90
41953;DHT22;63613;28.200;112.870;2023-05-07T04:05:04;24.20;68.00
41953;DHT22;63613;28.200;112.870;2023-05-07T04:07:31;24.20;68.10
41953;DHT22;63613;28.200;112.870;2023-05-07T04:09:57;24.20;68.20
41953;DHT22;63613;28.200;112.870;2023-05-07T04:12:24;24.20;68.10
41953;DHT22;63613;28.200;112.870;2023-05-07T04:14:51;24.20;68.10
41953;DHT22;63613;28.200;112.870;2023-05-07T04:17:18;24.10;68.20
41953;DHT22;63613;28.200;112.870;2023-05-07T04:19:46;24.20;68.30
41953;DHT22;63613;28.200;112.870;2023-05-07T04:22:13;24.10;68.30
41953;DHT22;63613;28.200;112.870;2023-05-07T04:24:40;24.20;68.20
41953;DHT22;63613;28.200;112.870;2023-05-07T04:27:06;24.20;68.20
41953;DHT22;63613;28.200;112.870;2023-05-07T04:29:33;24.20;68.20
41953;DHT22;63613;28.200;112.870;2023-05-07T04:32:00;24.20;68.20
41953;DHT22;63613;28.200;112.870;2023-05-07T04:34:32;24.20;68.00
41953;DHT22;63613;28.200;112.870;2023-05-07T04:36:59;24.20;67.80
41953;DHT22;63613;28.200;112.870;2023-05-07T04:39:26;24.10;67.20
41953;DHT22;63613;28.200;112.870;2023-05-07T04:41:54;24.10;67.30
41953;DHT22;63613;28.200;112.870;2023-05-07T04:44:21;24.10;67.00
41953;DHT22;63613;28.200;112.870;2023-05-07T04:46:48;24.10;66.80
41953;DHT22;63613;28.200;112.870;2023-05-07T04:49:15;24.20;67.10
41953;DHT22;63613;28.200;112.870;2023-05-07T04:51:42;24.20;67.70
41953;DHT22;63613;28.200;112.870;2023-05-07T04:54:09;24.10;67.70
41953;DHT22;63613;28.200;112.870;2023-05-07T04:56:36;24.20;67.70
41953;DHT22;63613;28.200;112.870;2023-05-07T04:59:04;24.20;67.60
41953;DHT22;63613;28.200;112.870;2023-05-07T05:01:34;24.20;67.40
41953;DHT22;63613;28.200;112.870;2023-05-07T05:04:01;24.20;67.30
41953;DHT22;63613;28.200;112.870;2023-05-07T05:06:29;24.20;67.40
41953;DHT22;63613;28.200;112.870;2023-05-07T05:08:59;24.20;67.30
41953;DHT22;63613;28.200;112.870;2023-05-07T05:11:25;24.20;67.40
41953;DHT22;63613;28.200;112.870;2023-05-07T05:14:12;24.20;67.50
41953;DHT22;63613;28.200;112.870;2023-05-07T05:16:39;24.20;67.40
41953;DHT22;63613;28.200;112.870;2023-05-07T05:19:06;24.20;67.40
41953;DHT22;63613;28.200;112.870;2023-05-07T05:21:53;24.20;67.10
41953;DHT22;63613;28.200;112.870;2023-05-07T05:24:20;24.20;67.00
41953;DHT22;63613;28.200;112.870;2023-05-07T05:26:47;24.20;67.00
41953;DHT22;63613;28.200;112.870;2023-05-07T05:29:16;24.20;66.90
41953;DHT22;63613;28.200;112.870;2023-05-07T05:31:43;24.20;66.70
41953;DHT22;63613;28.200;112.870;2023-05-07T05:34:10;24.20;66.60
41953;DHT22;63613;28.200;112.870;2023-05-07T05:36:37;24.20;66.40
41953;DHT22;63613;28.200;112.870;2023-05-07T05:39:04;24.20;66.30
41953;DHT22;63613;28.200;112.870;2023-05-07T05:41:32;24.20;66.20
41953;DHT22;63613;28.200;112.870;2023-05-07T05:43:59;24.10;66.20
41953;DHT22;63613;28.200;112.870;2023-05-07T05:46:26;24.10;66.20
41953;DHT22;63613;28.200;112.870;2023-05-07T05:48:53;24.20;66.30
41953;DHT22;63613;28.200;112.870;2023-05-07T05:51:23;24.10;66.20
41953;DHT22;63613;28.200;112.870;2023-05-07T05:53:49;24.10;66.20
41953;DHT22;63613;28.200;112.870;2023-05-07T05:56:19;24.20;66.20
41953;DHT22;63613;28.200;112.870;2023-05-07T05:58:48;24.20;66.20
41953;DHT22;63613;28.200;112.870;2023-05-07T06:01:14;24.20;65.90
41953;DHT22;63613;28.200;112.870;2023-05-07T06:03:43;24.20;65.90
41953;DHT22;63613;28.200;112.870;2023-05-07T06:06:10;24.20;65.80
41953;DHT22;63613;28.200;112.870;2023-05-07T06:08:37;24.30;65.70
41953;DHT22;63613;28.200;112.870;2023-05-07T06:11:04;24.30;65.50
41953;DHT22;63613;28.200;112.870;2023-05-07T06:13:33;24.20;65.60
41953;DHT22;63613;28.200;112.870;2023-05-07T06:16:00;24.30;65.50
41953;DHT22;63613;28.200;112.870;2023-05-07T06:18:26;24.30;65.50
41953;DHT22;63613;28.200;112.870;2023-05-07T06:20:56;24.40;65.40
41953;DHT22;63613;28.200;112.870;2023-05-07T06:23:23;24.40;65.50
41953;DHT22;63613;28.200;112.870;2023-05-07T06:25:50;24.30;65.50
41953;DHT22;63613;28.200;112.870;2023-05-07T06:28:19;24.30;65.60
41953;DHT22;63613;28.200;112.870;2023-05-07T06:30:46;24.30;65.80
41953;DHT22;63613;28.200;112.870;2023-05-07T06:33:15;24.30;65.80
41953;DHT22;63613;28.200;112.870;2023-05-07T06:35:42;24.30;65.80
41953;DHT22;63613;28.200;112.870;2023-05-07T06:38:10;24.40;65.70
41953;DHT22;63613;28.200;112.870;2023-05-07T06:40:38;24.40;65.50
41953;DHT22;63613;28.200;112.870;2023-05-07T06:43:05;24.40;65.60
41953;DHT22;63613;28.200;112.870;2023-05-07T06:45:32;24.40;65.50
41953;DHT22;63613;28.200;112.870;2023-05-07T06:48:00;24.40;65.30
41953;DHT22;63613;28.200;112.870;2023-05-07T06:50:29;24.30;65.40
41953;DHT22;63613;28.200;112.870;2023-05-07T06:52:56;24.30;65.30
41953;DHT22;63613;28.200;112.870;2023-05-07T06:55:23;24.30;65.10
41953;DHT22;63613;28.200;112.870;2023-05-07T06:57:51;24.40;64.90
41953;DHT22;63613;28.200;112.870;2023-05-07T07:00:19;24.30;63.80
41953;DHT22;63613;28.200;112.870;2023-05-07T07:02:46;24.20;62.60
41953;DHT22;63613;28.200;112.870;2023-05-07T07:05:15;24.20;62.70
41953;DHT22;63613;28.200;112.870;2023-05-07T07:07:42;24.10;57.90
41953;DHT22;63613;28.200;112.870;2023-05-07T07:10:09;24.00;61.10
41953;DHT22;63613;28.200;112.870;2023-05-07T07:12:36;23.90;60.10
41953;DHT22;63613;28.200;112.870;2023-05-07T07:15:03;23.80;59.60
41953;DHT22;63613;28.200;112.870;2023-05-07T07:17:33;23.90;58.80
41953;DHT22;63613;28.200;112.870;2023-05-07T07:20:03;23.90;58.50
41953;DHT22;63613;28.200;112.870;2023-05-07T07:22:30;23.90;58.40
41953;DHT22;63613;28.200;112.870;2023-05-07T07:24:58;23.90;58.00
41953;DHT22;63613;28.200;112.870;2023-05-07T07:27:26;23.90;58.60
41953;DHT22;63613;28.200;112.870;2023-05-07T07:30:13;23.90;58.10
41953;DHT22;63613;28.200;112.870;2023-05-07T07:32:43;23.80;57.60
41953;DHT22;63613;28.200;112.870;2023-05-07T07:35:10;23.80;57.90
41953;DHT22;63613;28.200;112.870;2023-05-07T07:37:36;23.80;57.80
41953;DHT22;63613;28.200;112.870;2023-05-07T07:40:03;23.90;57.70
41953;DHT22;63613;28.200;112.870;2023-05-07T07:42:31;23.80;58.00
41953;DHT22;63613;28.200;112.870;2023-05-07T07:44:59;23.90;57.60
41953;DHT22;63613;28.200;112.870;2023-05-07T07:47:26;23.80;57.70
41953;DHT22;63613;28.200;112.870;2023-05-07T07:50:14;23.30;58.50
41953;DHT22;63613;28.200;112.870;2023-05-07T07:52:44;23.40;58.90
41953;DHT22;63613;28.200;112.870;2023-05-07T07:55:11;23.60;58.90
41953;DHT22;63613;28.200;112.870;2023-05-07T07:57:40;23.70;58.20
41953;DHT22;63613;28.200;112.870;2023-05-07T08:00:07;23.70;58.60
41953;DHT22;63613;28.200;112.870;2023-05-07T08:02:40;23.60;58.00
41953;DHT22;63613;28.200;112.870;2023-05-07T08:05:10;23.60;59.10
41953;DHT22;63613;28.200;112.870;2023-05-07T08:07:57;23.50;59.30
41953;DHT22;63613;28.200;112.870;2023-05-07T08:10:24;23.50;58.80
41953;DHT22;63613;28.200;112.870;2023-05-07T08:12:51;23.60;58.90
41953;DHT22;63613;28.200;112.870;2023-05-07T08:15:18;23.70;58.80
41953;DHT22;63613;28.200;112.870;2023-05-07T08:17:45;23.50;59.00
41953;DHT22;63613;28.200;112.870;2023-05-07T08:20:15;23.50;58.90
41953;DHT22;63613;28.200;112.870;2023-05-07T08:22:41;23.50;58.90
41953;DHT22;63613;28.200;112.870;2023-05-07T08:25:09;23.50;59.00
41953;DHT22;63613;28.200;112.870;2023-05-07T08:27:39;23.60;59.00
41953;DHT22;63613;28.200;112.870;2023-05-07T08:30:10;23.70;58.80
41953;DHT22;63613;28.200;112.870;2023-05-07T08:32:37;23.60;58.90
41953;DHT22;63613;28.200;112.870;2023-05-07T08:35:05;23.50;58.80
41953;DHT22;63613;28.200;112.870;2023-05-07T08:37:37;23.60;58.70
41953;DHT22;63613;28.200;112.870;2023-05-07T08:40:05;23.60;58.70
41953;DHT22;63613;28.200;112.870;2023-05-07T08:42:36;23.60;58.50
41953;DHT22;63613;28.200;112.870;2023-05-07T08:45:09;23.60;58.80
41953;DHT22;63613;28.200;112.870;2023-05-07T08:47:49;23.70;58.90
41953;DHT22;63613;28.200;112.870;2023-05-07T08:50:18;23.70;59.10
41953;DHT22;63613;28.200;112.870;2023-05-07T08:52:46;23.70;59.10
41953;DHT22;63613;28.200;112.870;2023-05-07T08:55:33;23.60;59.30
41953;DHT22;63613;28.200;112.870;2023-05-07T08:58:00;23.60;59.60
41953;DHT22;63613;28.200;112.870;2023-05-07T09:00:33;23.60;59.40
41953;DHT22;63613;28.200;112.870;2023-05-07T09:03:01;23.60;59.40
41953;DHT22;63613;28.200;112.870;2023-05-07T09:05:27;23.70;59.30
41953;DHT22;63613;28.200;112.870;2023-05-07T09:07:54;23.70;59.30
41953;DHT22;63613;28.200;112.870;2023-05-07T09:10:21;23.60;59.40
41953;DHT22;63613;28.200;112.870;2023-05-07T09:12:50;23.60;59.50
41953;DHT22;63613;28.200;112.870;2023-05-07T09:15:37;23.50;59.40
41953;DHT22;63613;28.200;112.870;2023-05-07T09:18:04;23.60;59.20
41953;DHT22;63613;28.200;112.870;2023-05-07T09:20:31;23.60;59.10
41953;DHT22;63613;28.200;112.870;2023-05-07T09:22:58;23.50;58.90
41953;DHT22;63613;28.200;112.870;2023-05-07T09:25:32;23.50;58.70
41953;DHT22;63613;28.200;112.870;2023-05-07T09:28:00;23.50;58.70
41953;DHT22;63613;28.200;112.870;2023-05-07T09:30:29;23.60;58.80
41953;DHT22;63613;28.200;112.870;2023-05-07T09:33:00;23.50;58.20
41953;DHT22;63613;28.200;112.870;2023-05-07T09:35:28;23.40;59.00
41953;DHT22;63613;28.200;112.870;2023-05-07T09:37:58;23.40;59.30
41953;DHT22;63613;28.200;112.870;2023-05-07T09:40:27;23.30;59.60
41953;DHT22;63613;28.200;112.870;2023-05-07T09:43:13;23.30;59.30
41953;DHT22;63613;28.200;112.870;2023-05-07T09:45:43;23.30;59.00
41953;DHT22;63613;28.200;112.870;2023-05-07T09:48:11;23.40;59.10
41953;DHT22;63613;28.200;112.870;2023-05-07T09:50:49;23.30;59.40
41953;DHT22;63613;28.200;112.870;2023-05-07T09:53:18;23.40;59.20
41953;DHT22;63613;28.200;112.870;2023-05-07T09:55:45;23.40;59.30
41953;DHT22;63613;28.200;112.870;2023-05-07T09:58:13;23.40;59.20
41953;DHT22;63613;28.200;112.870;2023-05-07T10:00:43;23.30;59.30
41953;DHT22;63613;28.200;112.870;2023-05-07T10:03:12;23.30;59.30
41953;DHT22;63613;28.200;112.870;2023-05-07T10:05:40;23.40;59.40
41953;DHT22;63613;28.200;112.870;2023-05-07T10:08:10;23.40;59.50
41953;DHT22;63613;28.200;112.870;2023-05-07T10:10:38;23.30;59.70
41953;DHT22;63613;28.200;112.870;2023-05-07T10:13:06;23.30;59.80
41953;DHT22;63613;28.200;112.870;2023-05-07T10:15:37;23.30;60.00
41953;DHT22;63613;28.200;112.870;2023-05-07T10:18:06;23.30;60.50
41953;DHT22;63613;28.200;112.870;2023-05-07T10:20:35;23.40;60.50
41953;DHT22;63613;28.200;112.870;2023-05-07T10:23:04;23.40;60.70
41953;DHT22;63613;28.200;112.870;2023-05-07T10:25:32;23.40;60.80
41953;DHT22;63613;28.200;112.870;2023-05-07T10:28:05;23.50;60.80
41953;DHT22;63613;28.200;112.870;2023-05-07T10:31:31;23.40;60.90
41953;DHT22;63613;28.200;112.870;2023-05-07T10:34:06;23.40;61.00
41953;DHT22;63613;28.200;112.870;2023-05-07T10:36:35;23.40;61.10
41953;DHT22;63613;28.200;112.870;2023-05-07T10:39:02;23.50;61.20
41953;DHT22;63613;28.200;112.870;2023-05-07T10:41:29;23.40;61.30
41953;DHT22;63613;28.200;112.870;2023-05-07T10:43:56;23.50;61.30
41953;DHT22;63613;28.200;112.870;2023-05-07T10:46:25;23.50;61.40
41953;DHT22;63613;28.200;112.870;2023-05-07T10:51:34;23.50;61.50
41953;DHT22;63613;28.200;112.870;2023-05-07T10:56:57;23.50;61.70
41953;DHT22;63613;28.200;112.870;2023-05-07T10:59:43;23.50;61.70
41953;DHT22;63613;28.200;112.870;2023-05-07T11:02:10;23.50;61.80
41953;DHT22;63613;28.200;112.870;2023-05-07T11:04:40;23.50;61.80
41953;DHT22;63613;28.200;112.870;2023-05-07T11:10:00;23.50;61.90
41953;DHT22;63613;28.200;112.870;2023-05-07T11:15:07;23.50;62.30
41953;DHT22;63613;28.200;112.870;2023-05-07T11:17:35;23.50;62.40
41953;DHT22;63613;28.200;112.870;2023-05-07T11:20:18;23.50;62.50
41953;DHT22;63613;28.200;112.870;2023-05-07T11:22:45;23.50;62.60
41953;DHT22;63613;28.200;112.870;2023-05-07T11:25:18;23.50;62.80
41953;DHT22;63613;28.200;112.870;2023-05-07T11:27:47;23.50;62.90
41953;DHT22;63613;28.200;112.870;2023-05-07T11:30:20;23.50;63.10
41953;DHT22;63613;28.200;112.870;2023-05-07T11:32:48;23.50;63.10
41953;DHT22;63613;28.200;112.870;2023-05-07T11:35:15;23.50;63.20
41953;DHT22;63613;28.200;112.870;2023-05-07T11:37:44;23.50;63.30
41953;DHT22;63613;28.200;112.870;2023-05-07T11:40:12;23.50;63.40
41953;DHT22;63613;28.200;112.870;2023-05-07T11:42:40;23.50;63.50
41953;DHT22;63613;28.200;112.870;2023-05-07T11:45:23;23.50;63.60
41953;DHT22;63613;28.200;112.870;2023-05-07T11:47:54;23.50;63.70
41953;DHT22;63613;28.200;112.870;2023-05-07T11:50:21;23.50;63.70
41953;DHT22;63613;28.200;112.870;2023-05-07T11:52:53;23.50;63.80
41953;DHT22;63613;28.200;112.870;2023-05-07T11:55:20;23.50;63.80
41953;DHT22;63613;28.200;112.870;2023-05-07T11:57:50;23.60;63.80
41953;DHT22;63613;28.200;112.870;2023-05-07T12:00:17;23.50;63.80
41953;DHT22;63613;28.200;112.870;2023-05-07T12:02:45;23.50;63.80
41953;DHT22;63613;28.200;112.870;2023-05-07T12:05:12;23.50;63.80
41953;DHT22;63613;28.200;112.870;2023-05-07T12:07:39;23.50;63.90
41953;DHT22;63613;28.200;112.870;2023-05-07T12:10:11;23.60;63.90
41953;DHT22;63613;28.200;112.870;2023-05-07T12:12:40;23.50;63.90
41953;DHT22;63613;28.200;112.870;2023-05-07T12:15:08;23.50;64.00
41953;DHT22;63613;28.200;112.870;2023-05-07T12:17:35;23.60;64.10
41953;DHT22;63613;28.200;112.870;2023-05-07T12:20:03;23.50;64.20
41953;DHT22;63613;28.200;112.870;2023-05-07T12:22:31;23.50;64.20
41953;DHT22;63613;28.200;112.870;2023-05-07T12:24:58;23.50;64.30
41953;DHT22;63613;28.200;112.870;2023-05-07T12:27:26;23.50;64.30
41953;DHT22;63613;28.200;112.870;2023-05-07T12:29:53;23.50;64.40
41953;DHT22;63613;28.200;112.870;2023-05-07T12:32:21;23.50;64.40
41953;DHT22;63613;28.200;112.870;2023-05-07T12:34:54;23.50;64.50
41953;DHT22;63613;28.200;112.870;2023-05-07T12:37:25;23.60;64.60
41953;DHT22;63613;28.200;112.870;2023-05-07T12:40:11;23.50;64.60
41953;DHT22;63613;28.200;112.870;2023-05-07T12:42:40;23.60;64.60
41953;DHT22;63613;28.200;112.870;2023-05-07T12:45:12;23.50;64.70
41953;DHT22;63613;28.200;112.870;2023-05-07T12:47:44;23.60;64.70
41953;DHT22;63613;28.200;112.870;2023-05-07T12:50:11;23.60;64.80
41953;DHT22;63613;28.200;112.870;2023-05-07T12:52:48;23.50;64.80
41953;DHT22;63613;28.200;112.870;2023-05-07T12:55:17;23.60;64.80
41953;DHT22;63613;28.200;112.870;2023-05-07T12:57:48;23.60;64.90
41953;DHT22;63613;28.200;112.870;2023-05-07T13:00:15;23.60;64.90
41953;DHT22;63613;28.200;112.870;2023-05-07T13:02:43;23.60;64.90
41953;DHT22;63613;28.200;112.870;2023-05-07T13:05:10;23.60;64.90
41953;DHT22;63613;28.200;112.870;2023-05-07T13:07:38;23.60;64.90
41953;DHT22;63613;28.200;112.870;2023-05-07T13:10:07;23.60;65.00
41953;DHT22;63613;28.200;112.870;2023-05-07T13:12:34;23.60;64.90
41953;DHT22;63613;28.200;112.870;2023-05-07T13:15:01;23.60;65.00
41953;DHT22;63613;28.200;112.870;2023-05-07T13:17:28;23.60;64.90
41953;DHT22;63613;28.200;112.870;2023-05-07T13:19:57;23.60;64.90
41953;DHT22;63613;28.200;112.870;2023-05-07T13:22:24;23.60;65.00
41953;DHT22;63613;28.200;112.870;2023-05-07T13:24:50;23.60;65.00
41953;DHT22;63613;28.200;112.870;2023-05-07T13:27:20;23.60;65.10
41953;DHT22;63613;28.200;112.870;2023-05-07T13:29:47;23.60;65.00
41953;DHT22;63613;28.200;112.870;2023-05-07T13:32:14;23.60;65.10
41953;DHT22;63613;28.200;112.870;2023-05-07T13:34:42;23.60;65.10
41953;DHT22;63613;28.200;112.870;2023-05-07T13:37:09;23.60;65.20
41953;DHT22;63613;28.200;112.870;2023-05-07T13:39:36;23.50;65.20
41953;DHT22;63613;28.200;112.870;2023-05-07T13:42:05;23.60;65.20
41953;DHT22;63613;28.200;112.870;2023-05-07T13:44:32;23.50;65.20
41953;DHT22;63613;28.200;112.870;2023-05-07T13:46:59;23.60;65.20
41953;DHT22;63613;28.200;112.870;2023-05-07T13:49:26;23.60;65.30
41953;DHT22;63613;28.200;112.870;2023-05-07T13:51:56;23.60;65.30
41953;DHT22;63613;28.200;112.870;2023-05-07T13:54:23;23.60;65.30
41953;DHT22;63613;28.200;112.870;2023-05-07T13:56:50;23.60;65.30
41953;DHT22;63613;28.200;112.870;2023-05-07T13:59:37;23.50;65.30
41953;DHT22;63613;28.200;112.870;2023-05-07T14:02:05;23.50;65.30
41953;DHT22;63613;28.200;112.870;2023-05-07T14:04:34;23.50;65.30
41953;DHT22;63613;28.200;112.870;2023-05-07T14:07:01;23.50;65.20
41953;DHT22;63613;28.200;112.870;2023-05-07T14:09:32;23.50;65.20
41953;DHT22;63613;28.200;112.870;2023-05-07T14:12:00;23.50;65.30
41953;DHT22;63613;28.200;112.870;2023-05-07T14:14:27;23.50;65.30
41953;DHT22;63613;28.200;112.870;2023-05-07T14:16:56;23.40;65.20
41953;DHT22;63613;28.200;112.870;2023-05-07T14:19:24;23.40;65.20
41953;DHT22;63613;28.200;112.870;2023-05-07T14:21:52;23.30;65.30
41953;DHT22;63613;28.200;112.870;2023-05-07T14:24:19;23.30;65.30
41953;DHT22;63613;28.200;112.870;2023-05-07T14:26:48;23.40;65.30
41953;DHT22;63613;28.200;112.870;2023-05-07T14:29:19;23.40;65.20
41953;DHT22;63613;28.200;112.870;2023-05-07T14:31:46;23.40;65.30
41953;DHT22;63613;28.200;112.870;2023-05-07T14:34:13;23.30;65.40
41953;DHT22;63613;28.200;112.870;2023-05-07T14:36:40;23.30;65.30
41953;DHT22;63613;28.200;112.870;2023-05-07T14:39:07;23.30;65.50
41953;DHT22;63613;28.200;112.870;2023-05-07T14:41:38;23.30;65.50
41953;DHT22;63613;28.200;112.870;2023-05-07T14:44:05;23.30;65.60
41953;DHT22;63613;28.200;112.870;2023-05-07T14:46:32;23.30;65.70
41953;DHT22;63613;28.200;112.870;2023-05-07T14:49:03;23.30;65.70
41953;DHT22;63613;28.200;112.870;2023-05-07T14:51:29;23.30;65.70
41953;DHT22;63613;28.200;112.870;2023-05-07T14:53:57;23.30;65.80
41953;DHT22;63613;28.200;112.870;2023-05-07T14:56:23;23.30;65.80
41953;DHT22;63613;28.200;112.870;2023-05-07T14:58:51;23.30;65.90
41953;DHT22;63613;28.200;112.870;2023-05-07T15:01:19;23.30;65.90
41953;DHT22;63613;28.200;112.870;2023-05-07T15:03:46;23.30;65.90
41953;DHT22;63613;28.200;112.870;2023-05-07T15:06:33;23.30;65.90
41953;DHT22;63613;28.200;112.870;2023-05-07T15:09:02;23.20;65.90
41953;DHT22;63613;28.200;112.870;2023-05-07T15:11:29;23.30;66.00
41953;DHT22;63613;28.200;112.870;2023-05-07T15:13:56;23.20;66.00
41953;DHT22;63613;28.200;112.870;2023-05-07T15:16:43;23.30;66.00
41953;DHT22;63613;28.200;112.870;2023-05-07T15:19:11;23.30;66.00
41953;DHT22;63613;28.200;112.870;2023-05-07T15:21:42;23.20;66.00
41953;DHT22;63613;28.200;112.870;2023-05-07T15:24:10;23.30;66.10
41953;DHT22;63613;28.200;112.870;2023-05-07T15:26:36;23.20;66.10
41953;DHT22;63613;28.200;112.870;2023-05-07T15:29:03;23.20;66.30